sensor_id;sensor_type;location;lat;lon;timestamp;P1;durP1;ratioP1;P2;durP2;ratioP2
66272;SDS011;58450;52.150;4.466;2023-05-17T00:02:15;15.82;;;4.20;;
66272;SDS011;58450;52.150;4.466;2023-05-17T00:04:43;14.73;;;4.00;;
66272;SDS011;58450;52.150;4.466;2023-05-17T00:07:11;16.17;;;4.32;;
66272;SDS011;58450;52.150;4.466;2023-05-17T00:09:38;14.05;;;3.95;;
66272;SDS011;58450;52.150;4.466;2023-05-17T00:12:06;13.35;;;3.63;;
66272;SDS011;58450;52.150;4.466;2023-05-17T00:14:34;15.73;;;4.03;;
66272;SDS011;58450;52.150;4.466;2023-05-17T00:17:02;17.08;;;3.75;;
66272;SDS011;58450;52.150;4.466;2023-05-17T00:19:30;19.80;;;4.38;;
66272;SDS011;58450;52.150;4.466;2023-05-17T00:21:58;13.23;;;3.90;;
66272;SDS011;58450;52.150;4.466;2023-05-17T00:24:25;16.55;;;4.35;;
66272;SDS011;58450;52.150;4.466;2023-05-17T00:26:53;13.98;;;4.30;;
66272;SDS011;58450;52.150;4.466;2023-05-17T00:29:20;17.55;;;4.20;;
66272;SDS011;58450;52.150;4.466;2023-05-17T00:31:47;17.65;;;4.45;;
66272;SDS011;58450;52.150;4.466;2023-05-17T00:34:16;14.35;;;3.80;;
66272;SDS011;58450;52.150;4.466;2023-05-17T00:36:44;15.43;;;4.20;;
66272;SDS011;58450;52.150;4.466;2023-05-17T00:39:11;12.63;;;3.70;;
66272;SDS011;58450;52.150;4.466;2023-05-17T00:41:39;18.08;;;4.47;;
66272;SDS011;58450;52.150;4.466;2023-05-17T00:44:06;15.43;;;4.53;;
66272;SDS011;58450;52.150;4.466;2023-05-17T00:46:34;15.02;;;3.90;;
66272;SDS011;58450;52.150;4.466;2023-05-17T00:49:01;15.70;;;4.22;;
66272;SDS011;58450;52.150;4.466;2023-05-17T00:51:30;19.17;;;5.13;;
66272;SDS011;58450;52.150;4.466;2023-05-17T00:54:00;15.13;;;3.95;;
66272;SDS011;58450;52.150;4.466;2023-05-17T00:56:30;17.60;;;4.10;;
66272;SDS011;58450;52.150;4.466;2023-05-17T00:58:58;13.73;;;4.38;;
66272;SDS011;58450;52.150;4.466;2023-05-17T01:01:26;15.02;;;3.88;;
66272;SDS011;58450;52.150;4.466;2023-05-17T01:03:54;19.65;;;4.70;;
66272;SDS011;58450;52.150;4.466;2023-05-17T01:06:23;17.50;;;4.90;;
66272;SDS011;58450;52.150;4.466;2023-05-17T01:08:52;14.80;;;3.90;;
66272;SDS011;58450;52.150;4.466;2023-05-17T01:11:23;15.68;;;4.22;;
66272;SDS011;58450;52.150;4.466;2023-05-17T01:14:08;12.63;;;4.03;;
66272;SDS011;58450;52.150;4.466;2023-05-17T01:17:00;14.63;;;4.22;;
66272;SDS011;58450;52.150;4.466;2023-05-17T01:19:39;17.17;;;3.88;;
66272;SDS011;58450;52.150;4.466;2023-05-17T01:22:22;15.93;;;4.03;;
66272;SDS011;58450;52.150;4.466;2023-05-17T01:25:14;15.82;;;4.68;;
66272;SDS011;58450;52.150;4.466;2023-05-17T01:30:37;14.60;;;3.85;;
66272;SDS011;58450;52.150;4.466;2023-05-17T01:33:07;13.40;;;4.28;;
66272;SDS011;58450;52.150;4.466;2023-05-17T01:35:35;11.48;;;3.63;;
66272;SDS011;58450;52.150;4.466;2023-05-17T01:38:03;16.42;;;4.22;;
66272;SDS011;58450;52.150;4.466;2023-05-17T01:40:30;11.00;;;3.67;;
66272;SDS011;58450;52.150;4.466;2023-05-17T01:43:04;13.98;;;3.95;;
66272;SDS011;58450;52.150;4.466;2023-05-17T01:45:50;11.82;;;3.50;;
66272;SDS011;58450;52.150;4.466;2023-05-17T01:48:29;13.05;;;3.95;;
66272;SDS011;58450;52.150;4.466;2023-05-17T01:51:02;15.32;;;3.67;;
66272;SDS011;58450;52.150;4.466;2023-05-17T01:53:32;13.57;;;3.78;;
66272;SDS011;58450;52.150;4.466;2023-05-17T01:56:07;15.90;;;3.95;;
66272;SDS011;58450;52.150;4.466;2023-05-17T01:58:43;12.85;;;3.80;;
66272;SDS011;58450;52.150;4.466;2023-05-17T02:01:13;11.90;;;3.58;;
66272;SDS011;58450;52.150;4.466;2023-05-17T02:03:46;13.18;;;3.97;;
66272;SDS011;58450;52.150;4.466;2023-05-17T02:06:15;13.38;;;3.80;;
66272;SDS011;58450;52.150;4.466;2023-05-17T02:08:43;11.48;;;3.85;;
66272;SDS011;58450;52.150;4.466;2023-05-17T02:11:10;11.13;;;3.53;;
66272;SDS011;58450;52.150;4.466;2023-05-17T02:13:38;14.40;;;3.53;;
66272;SDS011;58450;52.150;4.466;2023-05-17T02:16:07;15.77;;;4.10;;
66272;SDS011;58450;52.150;4.466;2023-05-17T02:18:34;11.98;;;3.40;;
66272;SDS011;58450;52.150;4.466;2023-05-17T02:21:03;13.23;;;3.72;;
66272;SDS011;58450;52.150;4.466;2023-05-17T02:23:31;14.30;;;3.58;;
66272;SDS011;58450;52.150;4.466;2023-05-17T02:25:58;14.88;;;4.05;;
66272;SDS011;58450;52.150;4.466;2023-05-17T02:28:26;11.25;;;3.60;;
66272;SDS011;58450;52.150;4.466;2023-05-17T02:30:53;13.80;;;3.78;;
66272;SDS011;58450;52.150;4.466;2023-05-17T02:33:22;12.10;;;3.42;;
66272;SDS011;58450;52.150;4.466;2023-05-17T02:35:50;11.75;;;3.78;;
66272;SDS011;58450;52.150;4.466;2023-05-17T02:38:17;10.70;;;3.78;;
66272;SDS011;58450;52.150;4.466;2023-05-17T02:40:45;13.55;;;3.60;;
66272;SDS011;58450;52.150;4.466;2023-05-17T02:43:12;15.48;;;3.60;;
66272;SDS011;58450;52.150;4.466;2023-05-17T02:45:42;13.73;;;3.83;;
66272;SDS011;58450;52.150;4.466;2023-05-17T02:48:09;13.20;;;3.70;;
66272;SDS011;58450;52.150;4.466;2023-05-17T02:50:38;11.80;;;3.40;;
66272;SDS011;58450;52.150;4.466;2023-05-17T02:53:06;10.70;;;3.30;;
66272;SDS011;58450;52.150;4.466;2023-05-17T02:55:33;13.00;;;3.30;;
66272;SDS011;58450;52.150;4.466;2023-05-17T02:58:00;11.73;;;3.47;;
66272;SDS011;58450;52.150;4.466;2023-05-17T03:00:29;11.98;;;3.38;;
66272;SDS011;58450;52.150;4.466;2023-05-17T03:02:56;11.15;;;3.10;;
66272;SDS011;58450;52.150;4.466;2023-05-17T03:05:24;13.18;;;3.58;;
66272;SDS011;58450;52.150;4.466;2023-05-17T03:07:53;17.67;;;4.20;;
66272;SDS011;58450;52.150;4.466;2023-05-17T03:10:20;13.65;;;3.80;;
66272;SDS011;58450;52.150;4.466;2023-05-17T03:12:47;10.50;;;3.30;;
66272;SDS011;58450;52.150;4.466;2023-05-17T03:15:15;13.38;;;3.70;;
66272;SDS011;58450;52.150;4.466;2023-05-17T03:17:42;9.27;;;3.20;;
66272;SDS011;58450;52.150;4.466;2023-05-17T03:20:10;13.27;;;3.65;;
66272;SDS011;58450;52.150;4.466;2023-05-17T03:22:38;14.52;;;3.22;;
66272;SDS011;58450;52.150;4.466;2023-05-17T03:25:09;13.57;;;3.47;;
66272;SDS011;58450;52.150;4.466;2023-05-17T03:27:37;8.73;;;2.63;;
66272;SDS011;58450;52.150;4.466;2023-05-17T03:30:05;7.97;;;2.63;;
66272;SDS011;58450;52.150;4.466;2023-05-17T03:32:34;12.65;;;2.92;;
66272;SDS011;58450;52.150;4.466;2023-05-17T03:35:04;10.73;;;2.85;;
66272;SDS011;58450;52.150;4.466;2023-05-17T03:37:33;9.00;;;2.90;;
66272;SDS011;58450;52.150;4.466;2023-05-17T03:40:00;10.52;;;2.58;;
66272;SDS011;58450;52.150;4.466;2023-05-17T03:42:29;12.23;;;3.05;;
66272;SDS011;58450;52.150;4.466;2023-05-17T03:44:57;10.80;;;2.90;;
66272;SDS011;58450;52.150;4.466;2023-05-17T03:47:26;7.85;;;2.45;;
66272;SDS011;58450;52.150;4.466;2023-05-17T03:49:53;16.02;;;3.20;;
66272;SDS011;58450;52.150;4.466;2023-05-17T03:52:21;14.25;;;3.17;;
66272;SDS011;58450;52.150;4.466;2023-05-17T03:54:48;13.13;;;3.17;;
66272;SDS011;58450;52.150;4.466;2023-05-17T03:57:16;15.27;;;2.97;;
66272;SDS011;58450;52.150;4.466;2023-05-17T03:59:45;11.18;;;2.90;;
66272;SDS011;58450;52.150;4.466;2023-05-17T04:02:13;12.48;;;3.05;;
66272;SDS011;58450;52.150;4.466;2023-05-17T04:04:47;11.82;;;2.90;;
66272;SDS011;58450;52.150;4.466;2023-05-17T04:07:15;9.40;;;2.80;;
66272;SDS011;58450;52.150;4.466;2023-05-17T04:09:43;13.70;;;2.92;;
66272;SDS011;58450;52.150;4.466;2023-05-17T04:12:10;12.27;;;2.63;;
66272;SDS011;58450;52.150;4.466;2023-05-17T04:14:38;7.63;;;2.30;;
66272;SDS011;58450;52.150;4.466;2023-05-17T04:17:07;10.27;;;2.78;;
66272;SDS011;58450;52.150;4.466;2023-05-17T04:19:35;10.20;;;2.55;;
66272;SDS011;58450;52.150;4.466;2023-05-17T04:22:02;10.80;;;2.83;;
66272;SDS011;58450;52.150;4.466;2023-05-17T04:24:30;12.15;;;2.67;;
66272;SDS011;58450;52.150;4.466;2023-05-17T04:26:57;11.05;;;2.40;;
66272;SDS011;58450;52.150;4.466;2023-05-17T04:29:25;10.55;;;2.85;;
66272;SDS011;58450;52.150;4.466;2023-05-17T04:31:52;9.82;;;2.20;;
66272;SDS011;58450;52.150;4.466;2023-05-17T04:34:21;11.27;;;2.50;;
66272;SDS011;58450;52.150;4.466;2023-05-17T04:36:49;10.82;;;2.50;;
66272;SDS011;58450;52.150;4.466;2023-05-17T04:39:18;11.02;;;2.30;;
66272;SDS011;58450;52.150;4.466;2023-05-17T04:41:46;11.27;;;2.80;;
66272;SDS011;58450;52.150;4.466;2023-05-17T04:44:14;11.02;;;3.00;;
66272;SDS011;58450;52.150;4.466;2023-05-17T04:46:42;9.65;;;2.33;;
66272;SDS011;58450;52.150;4.466;2023-05-17T04:49:10;10.98;;;2.40;;
66272;SDS011;58450;52.150;4.466;2023-05-17T04:51:40;10.30;;;2.40;;
66272;SDS011;58450;52.150;4.466;2023-05-17T04:54:07;11.55;;;2.85;;
66272;SDS011;58450;52.150;4.466;2023-05-17T04:56:35;8.40;;;1.85;;
66272;SDS011;58450;52.150;4.466;2023-05-17T04:59:02;7.95;;;2.40;;
66272;SDS011;58450;52.150;4.466;2023-05-17T05:01:30;10.00;;;2.38;;
66272;SDS011;58450;52.150;4.466;2023-05-17T05:04:00;7.53;;;2.03;;
66272;SDS011;58450;52.150;4.466;2023-05-17T05:06:31;9.90;;;2.00;;
66272;SDS011;58450;52.150;4.466;2023-05-17T05:09:00;13.48;;;2.92;;
66272;SDS011;58450;52.150;4.466;2023-05-17T05:11:28;8.30;;;2.25;;
66272;SDS011;58450;52.150;4.466;2023-05-17T05:13:57;9.77;;;2.05;;
66272;SDS011;58450;52.150;4.466;2023-05-17T05:16:24;8.65;;;2.10;;
66272;SDS011;58450;52.150;4.466;2023-05-17T05:18:52;8.68;;;2.28;;
66272;SDS011;58450;52.150;4.466;2023-05-17T05:21:19;8.50;;;2.30;;
66272;SDS011;58450;52.150;4.466;2023-05-17T05:23:47;10.35;;;2.25;;
66272;SDS011;58450;52.150;4.466;2023-05-17T05:26:16;11.00;;;2.17;;
66272;SDS011;58450;52.150;4.466;2023-05-17T05:28:43;10.27;;;2.10;;
66272;SDS011;58450;52.150;4.466;2023-05-17T05:31:11;10.95;;;2.00;;
66272;SDS011;58450;52.150;4.466;2023-05-17T05:33:38;10.57;;;2.35;;
66272;SDS011;58450;52.150;4.466;2023-05-17T05:36:06;9.30;;;2.08;;
66272;SDS011;58450;52.150;4.466;2023-05-17T05:38:34;11.50;;;2.47;;
66272;SDS011;58450;52.150;4.466;2023-05-17T05:41:02;12.27;;;2.50;;
66272;SDS011;58450;52.150;4.466;2023-05-17T05:43:31;9.35;;;2.45;;
66272;SDS011;58450;52.150;4.466;2023-05-17T05:46:00;7.93;;;2.08;;
66272;SDS011;58450;52.150;4.466;2023-05-17T05:48:28;8.80;;;2.20;;
66272;SDS011;58450;52.150;4.466;2023-05-17T05:50:55;6.63;;;1.92;;
66272;SDS011;58450;52.150;4.466;2023-05-17T05:53:23;8.07;;;2.00;;
66272;SDS011;58450;52.150;4.466;2023-05-17T05:55:50;7.53;;;1.92;;
66272;SDS011;58450;52.150;4.466;2023-05-17T05:58:18;7.22;;;1.90;;
66272;SDS011;58450;52.150;4.466;2023-05-17T06:00:47;7.35;;;1.85;;
66272;SDS011;58450;52.150;4.466;2023-05-17T06:03:14;7.00;;;1.83;;
66272;SDS011;58450;52.150;4.466;2023-05-17T06:05:42;7.63;;;1.80;;
66272;SDS011;58450;52.150;4.466;2023-05-17T06:08:10;8.98;;;1.90;;
66272;SDS011;58450;52.150;4.466;2023-05-17T06:10:37;8.32;;;2.00;;
66272;SDS011;58450;52.150;4.466;2023-05-17T06:13:05;4.82;;;1.50;;
66272;SDS011;58450;52.150;4.466;2023-05-17T06:15:32;8.20;;;1.85;;
66272;SDS011;58450;52.150;4.466;2023-05-17T06:18:01;8.45;;;1.65;;
66272;SDS011;58450;52.150;4.466;2023-05-17T06:20:29;12.43;;;2.28;;
66272;SDS011;58450;52.150;4.466;2023-05-17T06:22:56;8.18;;;1.83;;
66272;SDS011;58450;52.150;4.466;2023-05-17T06:25:24;9.90;;;1.95;;
66272;SDS011;58450;52.150;4.466;2023-05-17T06:27:51;11.13;;;2.17;;
66272;SDS011;58450;52.150;4.466;2023-05-17T06:30:19;9.70;;;1.98;;
66272;SDS011;58450;52.150;4.466;2023-05-17T06:32:47;10.32;;;1.88;;
66272;SDS011;58450;52.150;4.466;2023-05-17T06:35:15;11.25;;;2.10;;
66272;SDS011;58450;52.150;4.466;2023-05-17T06:37:43;9.25;;;2.08;;
66272;SDS011;58450;52.150;4.466;2023-05-17T06:40:11;11.55;;;2.10;;
66272;SDS011;58450;52.150;4.466;2023-05-17T06:42:39;7.80;;;1.90;;
66272;SDS011;58450;52.150;4.466;2023-05-17T06:45:07;15.75;;;2.60;;
66272;SDS011;58450;52.150;4.466;2023-05-17T06:47:35;9.40;;;1.92;;
66272;SDS011;58450;52.150;4.466;2023-05-17T06:50:03;9.32;;;1.90;;
66272;SDS011;58450;52.150;4.466;2023-05-17T06:52:33;8.10;;;1.90;;
66272;SDS011;58450;52.150;4.466;2023-05-17T06:55:00;8.48;;;2.00;;
66272;SDS011;58450;52.150;4.466;2023-05-17T06:57:28;9.82;;;2.30;;
66272;SDS011;58450;52.150;4.466;2023-05-17T06:59:56;10.45;;;2.25;;
66272;SDS011;58450;52.150;4.466;2023-05-17T07:02:23;11.80;;;2.22;;
66272;SDS011;58450;52.150;4.466;2023-05-17T07:04:51;8.70;;;2.22;;
66272;SDS011;58450;52.150;4.466;2023-05-17T07:07:18;7.63;;;1.83;;
66272;SDS011;58450;52.150;4.466;2023-05-17T07:09:48;10.20;;;1.80;;
66272;SDS011;58450;52.150;4.466;2023-05-17T07:12:15;8.73;;;1.92;;
66272;SDS011;58450;52.150;4.466;2023-05-17T07:14:43;6.20;;;1.58;;
66272;SDS011;58450;52.150;4.466;2023-05-17T07:17:10;6.30;;;1.67;;
66272;SDS011;58450;52.150;4.466;2023-05-17T07:19:38;7.00;;;1.80;;
66272;SDS011;58450;52.150;4.466;2023-05-17T07:22:05;7.05;;;1.42;;
66272;SDS011;58450;52.150;4.466;2023-05-17T07:24:33;10.55;;;1.38;;
66272;SDS011;58450;52.150;4.466;2023-05-17T07:27:02;6.65;;;1.33;;
66272;SDS011;58450;52.150;4.466;2023-05-17T07:29:30;7.03;;;1.83;;
66272;SDS011;58450;52.150;4.466;2023-05-17T07:31:58;6.50;;;1.52;;
66272;SDS011;58450;52.150;4.466;2023-05-17T07:34:25;7.57;;;1.50;;
66272;SDS011;58450;52.150;4.466;2023-05-17T07:36:53;5.30;;;1.35;;
66272;SDS011;58450;52.150;4.466;2023-05-17T07:39:20;6.07;;;1.50;;
66272;SDS011;58450;52.150;4.466;2023-05-17T07:41:48;4.80;;;1.23;;
66272;SDS011;58450;52.150;4.466;2023-05-17T07:44:17;5.82;;;1.35;;
66272;SDS011;58450;52.150;4.466;2023-05-17T07:46:46;5.60;;;1.25;;
66272;SDS011;58450;52.150;4.466;2023-05-17T07:49:14;3.92;;;1.08;;
66272;SDS011;58450;52.150;4.466;2023-05-17T07:51:41;3.85;;;1.20;;
66272;SDS011;58450;52.150;4.466;2023-05-17T07:54:09;4.25;;;1.27;;
66272;SDS011;58450;52.150;4.466;2023-05-17T07:56:47;5.65;;;1.40;;
66272;SDS011;58450;52.150;4.466;2023-05-17T07:59:16;5.15;;;1.27;;
66272;SDS011;58450;52.150;4.466;2023-05-17T08:01:44;4.80;;;1.20;;
66272;SDS011;58450;52.150;4.466;2023-05-17T08:04:11;5.03;;;1.40;;
66272;SDS011;58450;52.150;4.466;2023-05-17T08:06:39;5.40;;;1.10;;
66272;SDS011;58450;52.150;4.466;2023-05-17T08:09:07;4.25;;;1.00;;
66272;SDS011;58450;52.150;4.466;2023-05-17T08:11:35;3.10;;;0.98;;
66272;SDS011;58450;52.150;4.466;2023-05-17T08:14:11;6.03;;;1.20;;
66272;SDS011;58450;52.150;4.466;2023-05-17T08:16:41;4.85;;;1.17;;
66272;SDS011;58450;52.150;4.466;2023-05-17T08:19:10;3.53;;;0.90;;
66272;SDS011;58450;52.150;4.466;2023-05-17T08:21:39;6.22;;;1.20;;
66272;SDS011;58450;52.150;4.466;2023-05-17T08:24:08;4.20;;;1.20;;
66272;SDS011;58450;52.150;4.466;2023-05-17T08:26:36;4.05;;;1.20;;
66272;SDS011;58450;52.150;4.466;2023-05-17T08:29:04;4.32;;;1.25;;
66272;SDS011;58450;52.150;4.466;2023-05-17T08:31:31;5.13;;;1.08;;
66272;SDS011;58450;52.150;4.466;2023-05-17T08:34:00;4.95;;;1.08;;
66272;SDS011;58450;52.150;4.466;2023-05-17T08:36:28;6.97;;;1.38;;
66272;SDS011;58450;52.150;4.466;2023-05-17T08:38:55;4.38;;;1.05;;
66272;SDS011;58450;52.150;4.466;2023-05-17T08:41:23;4.10;;;1.02;;
66272;SDS011;58450;52.150;4.466;2023-05-17T08:43:50;6.05;;;1.40;;
66272;SDS011;58450;52.150;4.466;2023-05-17T08:46:19;6.55;;;1.25;;
66272;SDS011;58450;52.150;4.466;2023-05-17T08:48:51;7.85;;;1.50;;
66272;SDS011;58450;52.150;4.466;2023-05-17T08:51:22;7.20;;;1.40;;
66272;SDS011;58450;52.150;4.466;2023-05-17T08:53:49;5.43;;;1.48;;
66272;SDS011;58450;52.150;4.466;2023-05-17T08:56:17;5.60;;;1.30;;
66272;SDS011;58450;52.150;4.466;2023-05-17T08:58:50;6.50;;;1.25;;
66272;SDS011;58450;52.150;4.466;2023-05-17T09:01:22;6.40;;;1.27;;
66272;SDS011;58450;52.150;4.466;2023-05-17T09:03:50;5.82;;;1.20;;
66272;SDS011;58450;52.150;4.466;2023-05-17T09:06:19;3.72;;;1.27;;
66272;SDS011;58450;52.150;4.466;2023-05-17T09:08:49;6.25;;;1.15;;
66272;SDS011;58450;52.150;4.466;2023-05-17T09:11:23;3.67;;;1.00;;
66272;SDS011;58450;52.150;4.466;2023-05-17T09:13:52;5.25;;;1.08;;
66272;SDS011;58450;52.150;4.466;2023-05-17T09:16:23;6.68;;;1.10;;
66272;SDS011;58450;52.150;4.466;2023-05-17T09:18:53;4.63;;;1.15;;
66272;SDS011;58450;52.150;4.466;2023-05-17T09:21:24;4.05;;;1.10;;
66272;SDS011;58450;52.150;4.466;2023-05-17T09:23:53;5.00;;;1.38;;
66272;SDS011;58450;52.150;4.466;2023-05-17T09:26:24;4.03;;;0.90;;
66272;SDS011;58450;52.150;4.466;2023-05-17T09:28:51;5.80;;;0.80;;
66272;SDS011;58450;52.150;4.466;2023-05-17T09:31:19;5.00;;;1.02;;
66272;SDS011;58450;52.150;4.466;2023-05-17T09:33:47;5.13;;;1.17;;
66272;SDS011;58450;52.150;4.466;2023-05-17T09:36:16;5.63;;;1.55;;
66272;SDS011;58450;52.150;4.466;2023-05-17T09:38:53;6.93;;;1.35;;
66272;SDS011;58450;52.150;4.466;2023-05-17T09:41:24;4.60;;;1.00;;
66272;SDS011;58450;52.150;4.466;2023-05-17T09:43:56;6.50;;;1.48;;
66272;SDS011;58450;52.150;4.466;2023-05-17T09:46:25;6.57;;;1.20;;
66272;SDS011;58450;52.150;4.466;2023-05-17T09:48:53;5.50;;;1.25;;
66272;SDS011;58450;52.150;4.466;2023-05-17T09:51:33;4.40;;;0.95;;
66272;SDS011;58450;52.150;4.466;2023-05-17T09:54:04;4.78;;;1.05;;
66272;SDS011;58450;52.150;4.466;2023-05-17T09:56:33;3.90;;;1.00;;
66272;SDS011;58450;52.150;4.466;2023-05-17T09:59:02;4.25;;;1.08;;
66272;SDS011;58450;52.150;4.466;2023-05-17T10:01:36;4.95;;;1.10;;
66272;SDS011;58450;52.150;4.466;2023-05-17T10:04:08;4.88;;;1.27;;
66272;SDS011;58450;52.150;4.466;2023-05-17T10:06:37;5.22;;;1.10;;
66272;SDS011;58450;52.150;4.466;2023-05-17T10:09:09;5.55;;;1.15;;
66272;SDS011;58450;52.150;4.466;2023-05-17T10:14:12;4.35;;;1.00;;
66272;SDS011;58450;52.150;4.466;2023-05-17T10:16:47;3.35;;;1.10;;
66272;SDS011;58450;52.150;4.466;2023-05-17T10:19:15;4.78;;;1.00;;
66272;SDS011;58450;52.150;4.466;2023-05-17T10:21:46;6.97;;;1.30;;
66272;SDS011;58450;52.150;4.466;2023-05-17T10:24:18;5.72;;;1.13;;
66272;SDS011;58450;52.150;4.466;2023-05-17T10:26:46;5.80;;;1.20;;
66272;SDS011;58450;52.150;4.466;2023-05-17T10:29:16;5.78;;;1.20;;
66272;SDS011;58450;52.150;4.466;2023-05-17T10:31:46;6.05;;;1.42;;
66272;SDS011;58450;52.150;4.466;2023-05-17T10:34:16;3.85;;;1.15;;
66272;SDS011;58450;52.150;4.466;2023-05-17T10:36:45;5.95;;;1.27;;
66272;SDS011;58450;52.150;4.466;2023-05-17T10:39:17;3.92;;;0.98;;
66272;SDS011;58450;52.150;4.466;2023-05-17T10:41:45;4.68;;;1.30;;
66272;SDS011;58450;52.150;4.466;2023-05-17T10:44:17;5.28;;;1.38;;
66272;SDS011;58450;52.150;4.466;2023-05-17T10:46:52;6.57;;;1.13;;
66272;SDS011;58450;52.150;4.466;2023-05-17T10:49:23;4.22;;;1.08;;
66272;SDS011;58450;52.150;4.466;2023-05-17T10:51:51;4.82;;;1.17;;
66272;SDS011;58450;52.150;4.466;2023-05-17T10:54:20;5.68;;;1.38;;
66272;SDS011;58450;52.150;4.466;2023-05-17T10:57:01;3.67;;;1.10;;
66272;SDS011;58450;52.150;4.466;2023-05-17T10:59:32;6.13;;;1.30;;
66272;SDS011;58450;52.150;4.466;2023-05-17T11:02:01;5.70;;;1.38;;
66272;SDS011;58450;52.150;4.466;2023-05-17T11:04:31;6.03;;;1.33;;
66272;SDS011;58450;52.150;4.466;2023-05-17T11:07:19;5.82;;;1.42;;
66272;SDS011;58450;52.150;4.466;2023-05-17T11:09:52;4.53;;;1.15;;
66272;SDS011;58450;52.150;4.466;2023-05-17T11:12:28;4.95;;;1.00;;
66272;SDS011;58450;52.150;4.466;2023-05-17T11:14:59;2.47;;;0.93;;
66272;SDS011;58450;52.150;4.466;2023-05-17T11:17:27;4.93;;;1.02;;
66272;SDS011;58450;52.150;4.466;2023-05-17T11:20:02;5.15;;;1.00;;
66272;SDS011;58450;52.150;4.466;2023-05-17T11:22:36;3.97;;;1.08;;
66272;SDS011;58450;52.150;4.466;2023-05-17T11:25:09;6.07;;;1.25;;
66272;SDS011;58450;52.150;4.466;2023-05-17T11:27:42;6.03;;;1.10;;
66272;SDS011;58450;52.150;4.466;2023-05-17T11:30:15;5.00;;;1.17;;
66272;SDS011;58450;52.150;4.466;2023-05-17T11:32:50;6.82;;;1.40;;
66272;SDS011;58450;52.150;4.466;2023-05-17T11:35:24;4.53;;;1.10;;
66272;SDS011;58450;52.150;4.466;2023-05-17T11:38:10;5.57;;;1.25;;
66272;SDS011;58450;52.150;4.466;2023-05-17T11:40:41;6.30;;;1.35;;
66272;SDS011;58450;52.150;4.466;2023-05-17T11:43:11;4.53;;;1.20;;
66272;SDS011;58450;52.150;4.466;2023-05-17T11:45:41;5.63;;;1.27;;
66272;SDS011;58450;52.150;4.466;2023-05-17T11:48:10;5.50;;;1.40;;
66272;SDS011;58450;52.150;4.466;2023-05-17T11:50:39;5.47;;;1.30;;
66272;SDS011;58450;52.150;4.466;2023-05-17T11:53:09;4.63;;;1.20;;
66272;SDS011;58450;52.150;4.466;2023-05-17T11:55:38;5.10;;;1.20;;
66272;SDS011;58450;52.150;4.466;2023-05-17T11:58:09;6.97;;;1.38;;
66272;SDS011;58450;52.150;4.466;2023-05-17T12:00:38;6.78;;;1.33;;
66272;SDS011;58450;52.150;4.466;2023-05-17T12:03:16;5.25;;;1.13;;
66272;SDS011;58450;52.150;4.466;2023-05-17T12:05:45;5.18;;;1.50;;
66272;SDS011;58450;52.150;4.466;2023-05-17T12:08:16;5.85;;;1.50;;
66272;SDS011;58450;52.150;4.466;2023-05-17T12:10:46;6.70;;;1.58;;
66272;SDS011;58450;52.150;4.466;2023-05-17T12:13:17;4.03;;;1.00;;
66272;SDS011;58450;52.150;4.466;2023-05-17T12:15:47;4.35;;;1.17;;
66272;SDS011;58450;52.150;4.466;2023-05-17T12:18:22;5.50;;;1.48;;
66272;SDS011;58450;52.150;4.466;2023-05-17T12:20:53;6.47;;;1.52;;
66272;SDS011;58450;52.150;4.466;2023-05-17T12:23:26;5.53;;;1.20;;
66272;SDS011;58450;52.150;4.466;2023-05-17T12:26:05;5.10;;;1.30;;
66272;SDS011;58450;52.150;4.466;2023-05-17T12:28:36;5.57;;;1.38;;
66272;SDS011;58450;52.150;4.466;2023-05-17T12:31:06;6.13;;;1.33;;
66272;SDS011;58450;52.150;4.466;2023-05-17T12:33:40;6.72;;;1.38;;
66272;SDS011;58450;52.150;4.466;2023-05-17T12:36:10;9.02;;;1.70;;
66272;SDS011;58450;52.150;4.466;2023-05-17T12:38:39;7.32;;;1.75;;
66272;SDS011;58450;52.150;4.466;2023-05-17T12:41:09;7.88;;;2.00;;
66272;SDS011;58450;52.150;4.466;2023-05-17T12:43:40;8.63;;;1.60;;
66272;SDS011;58450;52.150;4.466;2023-05-17T12:46:11;8.32;;;1.50;;
66272;SDS011;58450;52.150;4.466;2023-05-17T12:48:40;6.63;;;1.60;;
66272;SDS011;58450;52.150;4.466;2023-05-17T12:51:08;7.28;;;1.38;;
66272;SDS011;58450;52.150;4.466;2023-05-17T12:53:38;8.15;;;1.70;;
66272;SDS011;58450;52.150;4.466;2023-05-17T12:56:13;8.30;;;1.58;;
66272;SDS011;58450;52.150;4.466;2023-05-17T12:58:46;7.45;;;1.60;;
66272;SDS011;58450;52.150;4.466;2023-05-17T13:01:33;6.10;;;1.60;;
66272;SDS011;58450;52.150;4.466;2023-05-17T13:04:02;10.35;;;1.73;;
66272;SDS011;58450;52.150;4.466;2023-05-17T13:06:41;7.93;;;1.77;;
66272;SDS011;58450;52.150;4.466;2023-05-17T13:09:10;9.05;;;1.60;;
66272;SDS011;58450;52.150;4.466;2023-05-17T13:11:39;7.53;;;1.20;;
66272;SDS011;58450;52.150;4.466;2023-05-17T13:14:09;5.20;;;1.23;;
66272;SDS011;58450;52.150;4.466;2023-05-17T13:16:38;8.35;;;1.35;;
66272;SDS011;58450;52.150;4.466;2023-05-17T13:19:10;7.25;;;1.60;;
66272;SDS011;58450;52.150;4.466;2023-05-17T13:21:39;5.93;;;1.42;;
66272;SDS011;58450;52.150;4.466;2023-05-17T13:24:07;6.22;;;1.35;;
66272;SDS011;58450;52.150;4.466;2023-05-17T13:26:36;3.95;;;1.15;;
66272;SDS011;58450;52.150;4.466;2023-05-17T13:29:03;3.85;;;1.08;;
66272;SDS011;58450;52.150;4.466;2023-05-17T13:31:32;7.28;;;1.38;;
66272;SDS011;58450;52.150;4.466;2023-05-17T13:33:59;4.38;;;1.35;;
66272;SDS011;58450;52.150;4.466;2023-05-17T13:36:27;4.75;;;1.13;;
66272;SDS011;58450;52.150;4.466;2023-05-17T13:38:54;5.18;;;1.30;;
66272;SDS011;58450;52.150;4.466;2023-05-17T13:41:22;6.35;;;1.10;;
66272;SDS011;58450;52.150;4.466;2023-05-17T13:43:50;6.30;;;1.25;;
66272;SDS011;58450;52.150;4.466;2023-05-17T13:46:17;5.05;;;1.30;;
66272;SDS011;58450;52.150;4.466;2023-05-17T13:48:48;5.10;;;1.40;;
66272;SDS011;58450;52.150;4.466;2023-05-17T13:51:16;4.43;;;1.08;;
66272;SDS011;58450;52.150;4.466;2023-05-17T13:53:43;5.40;;;1.40;;
66272;SDS011;58450;52.150;4.466;2023-05-17T13:56:11;5.43;;;1.30;;
66272;SDS011;58450;52.150;4.466;2023-05-17T13:58:38;6.32;;;1.50;;
66272;SDS011;58450;52.150;4.466;2023-05-17T14:01:06;6.90;;;1.50;;
66272;SDS011;58450;52.150;4.466;2023-05-17T14:03:34;4.80;;;1.20;;
66272;SDS011;58450;52.150;4.466;2023-05-17T14:06:03;5.85;;;1.55;;
66272;SDS011;58450;52.150;4.466;2023-05-17T14:08:31;6.50;;;1.52;;
66272;SDS011;58450;52.150;4.466;2023-05-17T14:11:00;8.73;;;1.42;;
66272;SDS011;58450;52.150;4.466;2023-05-17T14:13:27;7.78;;;1.63;;
66272;SDS011;58450;52.150;4.466;2023-05-17T14:15:55;6.10;;;1.42;;
66272;SDS011;58450;52.150;4.466;2023-05-17T14:18:22;6.70;;;1.70;;
66272;SDS011;58450;52.150;4.466;2023-05-17T14:20:50;5.82;;;1.45;;
66272;SDS011;58450;52.150;4.466;2023-05-17T14:23:19;6.35;;;1.60;;
66272;SDS011;58450;52.150;4.466;2023-05-17T14:25:46;7.38;;;1.35;;
66272;SDS011;58450;52.150;4.466;2023-05-17T14:28:15;6.78;;;1.60;;
66272;SDS011;58450;52.150;4.466;2023-05-17T14:30:42;9.18;;;1.80;;
66272;SDS011;58450;52.150;4.466;2023-05-17T14:33:11;5.60;;;1.50;;
66272;SDS011;58450;52.150;4.466;2023-05-17T14:35:39;6.65;;;1.40;;
66272;SDS011;58450;52.150;4.466;2023-05-17T14:38:06;7.45;;;1.45;;
66272;SDS011;58450;52.150;4.466;2023-05-17T14:40:35;8.23;;;1.60;;
66272;SDS011;58450;52.150;4.466;2023-05-17T14:43:02;5.60;;;1.50;;
66272;SDS011;58450;52.150;4.466;2023-05-17T14:45:31;5.55;;;1.50;;
66272;SDS011;58450;52.150;4.466;2023-05-17T14:47:58;7.82;;;1.40;;
66272;SDS011;58450;52.150;4.466;2023-05-17T14:50:26;7.43;;;1.42;;
66272;SDS011;58450;52.150;4.466;2023-05-17T14:52:53;8.50;;;1.83;;
66272;SDS011;58450;52.150;4.466;2023-05-17T14:55:21;8.73;;;2.05;;
66272;SDS011;58450;52.150;4.466;2023-05-17T14:57:50;6.00;;;1.42;;
66272;SDS011;58450;52.150;4.466;2023-05-17T15:00:18;5.20;;;1.30;;
66272;SDS011;58450;52.150;4.466;2023-05-17T15:02:48;5.43;;;1.30;;